createdAt,value
2022-12-23T00:01:16.164Z,3.32
2022-12-23T00:03:45.357Z,3.43
2022-12-23T00:06:18.357Z,3.37
2022-12-23T00:08:47.839Z,3.46
2022-12-23T00:11:21.497Z,3.45
2022-12-23T00:14:07.528Z,3.44
2022-12-23T00:16:39.480Z,3.51
2022-12-23T00:19:08.244Z,3.39
2022-12-23T00:21:37.060Z,3.59
2022-12-23T00:24:06.549Z,3.61
2022-12-23T00:26:35.370Z,3.57
2022-12-23T00:29:04.249Z,3.53
2022-12-23T00:31:32.872Z,3.46
2022-12-23T00:34:02.885Z,3.57
2022-12-23T00:36:32.456Z,3.53
2022-12-23T00:39:29.748Z,3.60
2022-12-23T00:42:15.649Z,3.54
2022-12-23T00:44:44.318Z,3.48
2022-12-23T00:47:33.264Z,3.55
2022-12-23T00:50:03.585Z,3.37
2022-12-23T00:52:32.924Z,3.49
2022-12-23T00:55:01.575Z,3.51
2022-12-23T00:57:31.677Z,3.48
2022-12-23T01:00:00.286Z,3.38
2022-12-23T01:02:46.617Z,3.53
2022-12-23T01:08:22.706Z,3.52
2022-12-23T01:10:51.605Z,3.55
2022-12-23T01:13:21.203Z,3.53
2022-12-23T01:15:50.074Z,3.49
2022-12-23T01:18:18.818Z,3.58
2022-12-23T01:20:47.502Z,3.45
2022-12-23T01:23:16.236Z,3.46
2022-12-23T01:25:48.122Z,3.40
2022-12-23T01:28:16.759Z,3.48
2022-12-23T01:30:45.412Z,3.48
2022-12-23T01:33:14.225Z,3.47
2022-12-23T01:35:42.945Z,3.45
2022-12-23T01:38:11.678Z,3.51
2022-12-23T01:40:43.655Z,3.53
2022-12-23T01:43:16.810Z,3.48
2022-12-23T01:45:46.070Z,3.43
2022-12-23T01:48:19.941Z,3.37
2022-12-23T01:50:56.199Z,3.48
2022-12-23T01:53:31.381Z,3.44
2022-12-23T01:56:07.983Z,3.38
2022-12-23T01:58:43.447Z,3.47
2022-12-23T02:01:30.995Z,3.55
2022-12-23T02:04:04.111Z,3.64
2022-12-23T02:06:54.469Z,3.41
2022-12-23T02:09:26.919Z,3.64
2022-12-23T02:12:32.141Z,3.53
2022-12-23T02:15:36.948Z,3.60
2022-12-23T02:18:23.196Z,3.45
2022-12-23T02:21:23.383Z,3.51
2022-12-23T02:24:36.485Z,3.57
2022-12-23T02:27:20.173Z,3.53
2022-12-23T02:30:42.145Z,3.48
2022-12-23T02:33:52.725Z,3.48
2022-12-23T02:36:40.471Z,3.53
2022-12-23T02:39:20.293Z,3.48
2022-12-23T02:41:58.813Z,3.40
2022-12-23T02:44:39.178Z,3.44
2022-12-23T02:47:16.013Z,3.46
2022-12-23T02:49:54.870Z,3.51
2022-12-23T02:52:30.547Z,3.44
2022-12-23T02:55:06.440Z,3.55
2022-12-23T02:57:42.266Z,3.51
2022-12-23T03:00:13.518Z,3.48
2022-12-23T03:02:45.329Z,3.58
2022-12-23T03:05:28.494Z,3.54
2022-12-23T03:08:04.178Z,3.56
2022-12-23T03:10:57.325Z,3.57
2022-12-23T03:13:43.769Z,3.52
2022-12-23T03:16:23.413Z,3.48
2022-12-23T03:19:12.489Z,3.42
2022-12-23T03:21:49.287Z,3.56
2022-12-23T03:24:30.943Z,3.53
2022-12-23T03:27:09.933Z,3.60
2022-12-23T03:29:46.886Z,3.51
2022-12-23T03:32:18.210Z,3.49
2022-12-23T03:34:53.047Z,3.48
2022-12-23T03:37:25.547Z,3.42
2022-12-23T03:40:02.434Z,3.42
2022-12-23T03:42:38.582Z,3.49
2022-12-23T03:48:11.026Z,3.53
2022-12-23T03:50:44.324Z,3.39
2022-12-23T03:53:21.373Z,3.42
2022-12-23T03:55:57.101Z,3.40
2022-12-23T03:58:36.617Z,3.37
2022-12-23T04:01:18.002Z,3.26
2022-12-23T04:03:58.701Z,3.25
2022-12-23T04:06:37.571Z,3.23
2022-12-23T04:09:08.865Z,3.21
2022-12-23T04:11:38.842Z,3.23
2022-12-23T04:14:09.083Z,3.16
2022-12-23T04:16:38.231Z,3.30
2022-12-23T04:19:06.892Z,3.20
2022-12-23T04:21:36.934Z,3.29
2022-12-23T04:24:06.144Z,3.17
2022-12-23T04:26:34.795Z,3.32
2022-12-23T04:29:03.630Z,3.09
2022-12-23T04:31:32.562Z,3.21
2022-12-23T04:34:01.230Z,3.13
2022-12-23T04:36:29.938Z,3.11
2022-12-23T04:38:59.994Z,3.06
2022-12-23T04:41:28.700Z,3.14
2022-12-23T04:43:57.383Z,3.13
2022-12-23T04:46:26.148Z,3.13
2022-12-23T04:48:54.916Z,3.10
2022-12-23T04:51:23.815Z,3.20
2022-12-23T04:53:52.484Z,3.08
2022-12-23T04:56:23.078Z,3.17
2022-12-23T04:58:51.791Z,3.14
2022-12-23T05:01:20.606Z,3.16
2022-12-23T05:03:49.262Z,3.07
2022-12-23T05:06:17.932Z,3.17
2022-12-23T05:08:46.588Z,3.14
2022-12-23T05:11:15.272Z,3.05
2022-12-23T05:13:45.269Z,2.97
2022-12-23T05:16:14.041Z,3.04
2022-12-23T05:18:42.767Z,2.92
2022-12-23T05:21:11.633Z,2.96
2022-12-23T05:23:40.606Z,3.04
2022-12-23T05:26:09.941Z,3.02
2022-12-23T05:28:38.754Z,3.02
2022-12-23T05:31:09.940Z,2.89
2022-12-23T05:33:38.834Z,2.97
2022-12-23T05:36:08.708Z,2.93
2022-12-23T05:38:37.324Z,2.98
2022-12-23T05:41:06.754Z,2.94
2022-12-23T05:43:35.483Z,3.01
2022-12-23T05:46:04.414Z,3.02
2022-12-23T05:48:34.615Z,2.95
2022-12-23T05:51:03.262Z,2.87
2022-12-23T05:53:32.209Z,2.79
2022-12-23T05:56:04.248Z,2.89
2022-12-23T05:58:33.066Z,2.81
2022-12-23T06:01:03.933Z,2.82
2022-12-23T06:03:34.281Z,2.74
2022-12-23T06:06:03.112Z,2.88
2022-12-23T06:08:31.845Z,2.79
2022-12-23T06:11:00.554Z,2.75
2022-12-23T06:13:29.172Z,2.81
2022-12-23T06:15:57.766Z,2.81
2022-12-23T06:18:26.461Z,2.83
2022-12-23T06:20:56.514Z,2.88
2022-12-23T06:23:26.375Z,2.75
2022-12-23T06:26:01.167Z,2.82
2022-12-23T06:28:30.677Z,2.75
2022-12-23T06:30:59.754Z,2.76
2022-12-23T06:33:28.455Z,2.81
2022-12-23T06:35:58.636Z,2.78
2022-12-23T06:38:27.609Z,2.68
2022-12-23T06:40:56.272Z,2.85
2022-12-23T06:43:25.047Z,2.83
2022-12-23T06:45:53.860Z,2.84
2022-12-23T06:48:22.704Z,2.72
2022-12-23T06:50:51.384Z,2.91
2022-12-23T06:53:22.322Z,2.69
2022-12-23T06:55:51.052Z,2.79
2022-12-23T06:58:19.769Z,2.80
2022-12-23T07:00:48.482Z,2.84
2022-12-23T07:03:17.489Z,2.93
2022-12-23T07:05:48.984Z,2.93
2022-12-23T07:08:17.761Z,2.96
2022-12-23T07:10:48.078Z,2.97
2022-12-23T07:13:16.859Z,2.94
2022-12-23T07:15:45.518Z,2.93
2022-12-23T07:18:14.216Z,2.85
2022-12-23T07:20:42.890Z,2.95
2022-12-23T07:23:11.529Z,2.89
2022-12-23T07:25:40.177Z,2.85
2022-12-23T07:28:10.357Z,2.97
2022-12-23T07:30:38.980Z,2.91
2022-12-23T07:33:07.664Z,2.93
2022-12-23T07:35:36.464Z,2.86
2022-12-23T07:38:05.353Z,2.89
2022-12-23T07:40:34.017Z,2.94
2022-12-23T07:43:03.029Z,3.02
2022-12-23T07:45:33.072Z,2.99
2022-12-23T07:49:16.011Z,2.95
2022-12-23T07:51:44.665Z,2.93
2022-12-23T07:54:14.586Z,2.88
2022-12-23T07:56:43.267Z,2.96
2022-12-23T07:59:11.909Z,2.93
2022-12-23T08:01:42.092Z,3.05
2022-12-23T08:04:10.856Z,2.90
2022-12-23T08:06:39.441Z,2.97
2022-12-23T08:09:09.548Z,3.12
2022-12-23T08:11:38.349Z,3.07
2022-12-23T08:14:07.200Z,3.10
2022-12-23T08:16:43.034Z,3.02
2022-12-23T08:19:13.761Z,3.00
2022-12-23T08:21:42.506Z,2.92
2022-12-23T08:24:11.295Z,3.04
2022-12-23T08:26:40.084Z,3.00
2022-12-23T08:29:08.854Z,3.00
2022-12-23T08:31:37.507Z,3.04
2022-12-23T08:34:06.262Z,3.02
2022-12-23T08:36:37.793Z,3.03
2022-12-23T08:39:10.828Z,3.07
2022-12-23T08:41:42.683Z,3.07
2022-12-23T08:44:11.945Z,3.21
2022-12-23T08:46:41.869Z,3.35
2022-12-23T08:49:11.909Z,3.28
2022-12-23T08:51:42.644Z,3.32
2022-12-23T08:54:11.345Z,3.51
2022-12-23T08:56:43.340Z,3.72
2022-12-23T08:59:19.254Z,3.89
2022-12-23T09:01:49.726Z,3.99
2022-12-23T09:04:18.753Z,4.14
2022-12-23T09:06:48.853Z,4.25
2022-12-23T09:09:17.875Z,4.40
2022-12-23T09:11:46.567Z,4.34
2022-12-23T09:14:15.378Z,4.29
2022-12-23T09:16:44.068Z,4.13
2022-12-23T09:19:12.799Z,4.21
2022-12-23T09:21:41.425Z,4.39
2022-12-23T09:24:11.390Z,4.33
2022-12-23T09:26:40.190Z,4.20
2022-12-23T09:29:08.855Z,4.29
2022-12-23T09:31:38.159Z,4.02
2022-12-23T09:34:07.631Z,3.90
2022-12-23T09:36:36.193Z,3.95
2022-12-23T09:39:05.319Z,3.92
2022-12-23T09:42:07.054Z,4.02
2022-12-23T09:44:58.613Z,4.06
2022-12-23T09:47:30.761Z,3.99
2022-12-23T09:50:03.476Z,3.89
2022-12-23T09:52:42.811Z,3.86
2022-12-23T09:55:14.083Z,3.83
2022-12-23T09:57:52.151Z,3.80
2022-12-23T10:00:23.292Z,3.77
2022-12-23T10:03:14.618Z,3.72
2022-12-23T10:06:02.613Z,3.70
2022-12-23T10:08:37.840Z,3.72
2022-12-23T10:11:15.192Z,3.71
2022-12-23T10:13:49.961Z,3.68
2022-12-23T10:16:22.432Z,3.61
2022-12-23T10:19:00.598Z,3.70
2022-12-23T10:21:42.223Z,3.65
2022-12-23T10:24:23.553Z,3.56
2022-12-23T10:26:55.681Z,3.58
2022-12-23T10:29:28.703Z,3.50
2022-12-23T10:32:19.703Z,3.51
2022-12-23T10:34:55.945Z,3.55
2022-12-23T10:37:35.840Z,3.46
2022-12-23T10:40:20.730Z,3.56
2022-12-23T10:43:04.216Z,3.55
2022-12-23T10:45:51.360Z,3.49
2022-12-23T10:48:48.051Z,3.58
2022-12-23T10:51:23.102Z,3.52
2022-12-23T10:53:57.641Z,3.58
2022-12-23T10:56:27.076Z,3.52
2022-12-23T10:59:00.547Z,3.48
2022-12-23T11:01:33.395Z,3.53
2022-12-23T11:04:09.067Z,3.53
2022-12-23T11:06:43.688Z,3.49
2022-12-23T11:09:21.249Z,3.38
2022-12-23T11:12:02.842Z,3.53
2022-12-23T11:14:40.164Z,3.41
2022-12-23T11:17:25.154Z,3.37
2022-12-23T11:20:15.432Z,3.36
2022-12-23T11:22:51.111Z,3.38
2022-12-23T11:25:29.998Z,3.36
2022-12-23T11:28:04.147Z,3.27
2022-12-23T11:30:37.669Z,3.35
2022-12-23T11:33:07.888Z,3.28
2022-12-23T11:35:38.327Z,3.26
2022-12-23T11:38:15.694Z,3.33
2022-12-23T11:40:48.363Z,3.26
2022-12-23T11:43:21.078Z,3.25
2022-12-23T11:45:49.784Z,3.34
2022-12-23T11:48:31.568Z,3.26
2022-12-23T11:51:03.139Z,3.19
2022-12-23T11:53:32.561Z,3.18
2022-12-23T11:56:05.835Z,3.13
2022-12-23T11:58:47.361Z,3.13
2022-12-23T12:01:21.581Z,3.21
2022-12-23T12:03:57.496Z,3.18
2022-12-23T12:06:28.178Z,3.20
2022-12-23T12:09:01.388Z,3.13
2022-12-23T12:11:37.647Z,3.13
2022-12-23T12:14:09.307Z,3.13
2022-12-23T12:16:56.133Z,3.26
2022-12-23T12:19:31.324Z,3.26
2022-12-23T12:22:07.050Z,3.23
2022-12-23T12:24:43.219Z,3.23
2022-12-23T12:27:13.406Z,3.24
2022-12-23T12:29:49.555Z,3.25
2022-12-23T12:32:24.189Z,3.15
2022-12-23T12:35:02.781Z,3.18
2022-12-23T12:37:42.129Z,3.07
2022-12-23T12:40:27.565Z,3.02
2022-12-23T12:43:01.757Z,3.02
2022-12-23T12:45:40.998Z,3.04
2022-12-23T12:48:31.759Z,2.97
2022-12-23T12:51:17.878Z,3.06
2022-12-23T12:54:07.679Z,3.11
2022-12-23T12:56:44.958Z,3.12
2022-12-23T12:59:20.829Z,3.02
2022-12-23T13:02:10.725Z,3.02
2022-12-23T13:05:20.815Z,2.97
2022-12-23T13:08:19.473Z,3.00
2022-12-23T13:10:53.289Z,2.98
2022-12-23T13:13:39.783Z,2.96
2022-12-23T13:16:26.416Z,2.98
2022-12-23T13:19:03.757Z,3.02
2022-12-23T13:21:41.721Z,2.97
2022-12-23T13:24:25.404Z,3.04
2022-12-23T13:27:07.200Z,3.02
2022-12-23T13:29:58.319Z,2.97
2022-12-23T13:32:47.032Z,3.00
2022-12-23T13:35:34.157Z,3.07
2022-12-23T13:38:22.127Z,3.21
2022-12-23T13:41:04.628Z,3.40
2022-12-23T13:43:46.385Z,3.35
2022-12-23T13:46:24.115Z,3.39
2022-12-23T13:49:04.964Z,3.32
2022-12-23T13:51:42.978Z,3.47
2022-12-23T13:54:28.182Z,3.28
2022-12-23T13:57:11.059Z,3.32
2022-12-23T13:59:42.620Z,3.28
2022-12-23T14:02:52.513Z,3.34
2022-12-23T14:05:35.226Z,3.19
2022-12-23T14:08:08.218Z,3.25
2022-12-23T14:10:38.133Z,3.32
2022-12-23T14:13:10.022Z,3.23
2022-12-23T14:15:57.989Z,3.31
2022-12-23T14:18:55.798Z,3.21
2022-12-23T14:21:38.924Z,3.14
2022-12-23T14:24:47.964Z,3.26
2022-12-23T14:27:36.678Z,3.14
2022-12-23T14:30:16.555Z,3.26
2022-12-23T14:32:51.191Z,3.20
2022-12-23T14:35:57.398Z,3.07
2022-12-23T14:38:32.696Z,3.17
2022-12-23T14:41:25.394Z,3.00
2022-12-23T14:43:59.883Z,3.00
2022-12-23T14:47:00.358Z,3.05
2022-12-23T14:49:42.963Z,3.11
2022-12-23T14:52:49.082Z,3.00
2022-12-23T14:55:47.738Z,3.01
2022-12-23T14:58:51.513Z,2.96
2022-12-23T15:01:27.533Z,3.04
2022-12-23T15:04:01.871Z,2.92
2022-12-23T15:06:38.200Z,2.88
2022-12-23T15:09:10.556Z,2.93
2022-12-23T15:11:42.299Z,2.91
2022-12-23T15:14:20.725Z,2.89
2022-12-23T15:16:49.518Z,2.88
2022-12-23T15:19:23.246Z,2.89
2022-12-23T15:22:02.002Z,2.96
2022-12-23T15:24:36.388Z,2.91
2022-12-23T15:27:26.407Z,2.97
2022-12-23T15:29:56.693Z,2.97
2022-12-23T15:32:28.033Z,2.97
2022-12-23T15:35:06.326Z,2.92
2022-12-23T15:37:35.827Z,2.95
2022-12-23T15:40:12.597Z,2.91
2022-12-23T15:42:49.912Z,2.90
2022-12-23T15:45:36.289Z,2.95
2022-12-23T15:48:23.846Z,2.95
2022-12-23T15:51:00.621Z,2.89
2022-12-23T15:53:34.753Z,2.89
2022-12-23T15:56:09.906Z,2.85
2022-12-23T15:58:43.485Z,2.94
2022-12-23T16:01:16.956Z,2.90
2022-12-23T16:03:54.395Z,2.88
2022-12-23T16:06:28.942Z,2.91
2022-12-23T16:09:01.150Z,2.88
2022-12-23T16:11:49.117Z,2.95
2022-12-23T16:14:34.305Z,2.96
2022-12-23T16:17:15.291Z,2.92
2022-12-23T16:19:47.922Z,2.89
2022-12-23T16:22:29.179Z,2.81
2022-12-23T16:25:20.259Z,2.88
2022-12-23T16:27:55.345Z,2.87
2022-12-23T16:30:30.456Z,2.85
2022-12-23T16:33:02.993Z,2.85
2022-12-23T16:35:38.255Z,2.88
2022-12-23T16:38:18.270Z,2.91
2022-12-23T16:40:49.539Z,2.93
2022-12-23T16:43:19.431Z,2.96
2022-12-23T16:45:53.137Z,2.91
2022-12-23T16:48:31.109Z,2.88
2022-12-23T16:51:00.386Z,2.85
2022-12-23T16:53:30.527Z,2.85
2022-12-23T16:56:01.088Z,2.83
2022-12-23T16:58:30.576Z,2.90
2022-12-23T17:00:59.395Z,2.89
2022-12-23T17:03:28.246Z,2.87
2022-12-23T17:05:57.292Z,2.83
2022-12-23T17:08:26.035Z,2.93
2022-12-23T17:10:58.364Z,2.97
2022-12-23T17:13:26.990Z,3.02
2022-12-23T17:15:55.642Z,2.93
2022-12-23T17:18:24.378Z,2.93
2022-12-23T17:20:53.029Z,2.91
2022-12-23T17:23:35.714Z,2.92
2022-12-23T17:26:05.773Z,2.88
2022-12-23T17:28:34.747Z,2.94
2022-12-23T17:31:08.607Z,2.93
2022-12-23T17:33:39.566Z,3.03
2022-12-23T17:36:08.775Z,2.90
2022-12-23T17:38:37.422Z,2.96
2022-12-23T17:41:07.993Z,3.05
2022-12-23T17:43:36.732Z,2.97
2022-12-23T17:46:06.072Z,2.96
2022-12-23T17:48:34.773Z,2.87
2022-12-23T17:51:03.509Z,2.95
2022-12-23T17:53:32.271Z,2.87
2022-12-23T17:56:00.875Z,2.87
2022-12-23T17:58:30.941Z,2.91
2022-12-23T18:00:59.738Z,2.94
2022-12-23T18:03:28.377Z,2.97
2022-12-23T18:06:01.617Z,2.96
2022-12-23T18:08:31.093Z,2.96
2022-12-23T18:11:00.923Z,2.97
2022-12-23T18:13:31.311Z,2.90
2022-12-23T18:16:00.072Z,2.81
2022-12-23T18:18:36.788Z,2.91
2022-12-23T18:21:21.731Z,2.92
2022-12-23T18:23:50.978Z,2.85
2022-12-23T18:26:19.687Z,2.97
2022-12-23T18:28:54.267Z,2.94
2022-12-23T18:31:27.358Z,2.96
2022-12-23T18:33:56.554Z,2.91
2022-12-23T18:36:27.869Z,3.00
2022-12-23T18:38:57.328Z,2.93
2022-12-23T18:41:28.096Z,3.01
2022-12-23T18:43:58.354Z,3.04
2022-12-23T18:46:27.065Z,3.02
2022-12-23T18:48:55.940Z,3.04
2022-12-23T18:51:24.527Z,3.01
2022-12-23T18:53:53.220Z,3.05
2022-12-23T18:56:22.793Z,2.95
2022-12-23T18:58:51.508Z,2.98
2022-12-23T19:01:21.667Z,3.06
2022-12-23T19:03:50.409Z,3.00
2022-12-23T19:06:19.271Z,3.07
2022-12-23T19:08:48.596Z,3.07
2022-12-23T19:11:21.535Z,3.01
2022-12-23T19:13:50.235Z,3.07
2022-12-23T19:16:22.634Z,2.98
2022-12-23T19:18:52.270Z,3.04
2022-12-23T19:21:21.672Z,3.07
2022-12-23T19:23:50.522Z,3.07
2022-12-23T19:26:19.642Z,2.97
2022-12-23T19:28:48.979Z,3.00
2022-12-23T19:31:20.986Z,3.05
2022-12-23T19:33:49.915Z,3.04
2022-12-23T19:36:22.792Z,3.00
2022-12-23T19:38:52.746Z,3.02
2022-12-23T19:41:21.652Z,3.01
2022-12-23T19:43:50.667Z,2.99
2022-12-23T19:46:21.368Z,3.00
2022-12-23T19:48:53.571Z,3.04
2022-12-23T19:51:22.553Z,3.01
2022-12-23T19:53:53.306Z,3.14
2022-12-23T19:56:22.764Z,3.11
2022-12-23T19:58:52.321Z,3.14
2022-12-23T20:01:25.206Z,3.11
2022-12-23T20:03:57.028Z,3.00
2022-12-23T20:06:28.401Z,3.18
2022-12-23T20:09:01.053Z,3.08
2022-12-23T20:11:32.726Z,3.10
2022-12-23T20:14:02.903Z,3.15
2022-12-23T20:16:35.523Z,3.10
2022-12-23T20:19:04.873Z,3.12
2022-12-23T20:21:34.126Z,3.13
2022-12-23T20:24:03.411Z,3.13
2022-12-23T20:26:32.473Z,3.13
2022-12-23T20:29:01.383Z,3.19
2022-12-23T20:31:34.378Z,3.24
2022-12-23T20:34:03.997Z,3.23
2022-12-23T20:36:35.359Z,3.23
2022-12-23T20:39:05.739Z,3.23
2022-12-23T20:41:34.941Z,3.24
2022-12-23T20:46:54.104Z,3.27
2022-12-23T20:49:23.060Z,3.30
2022-12-23T20:51:51.951Z,3.10
2022-12-23T20:54:24.932Z,3.19
2022-12-23T20:56:56.905Z,3.20
2022-12-23T20:59:25.681Z,3.21
2022-12-23T21:01:56.649Z,3.23
2022-12-23T21:04:25.549Z,3.31
2022-12-23T21:06:54.504Z,3.15
2022-12-23T21:09:23.155Z,3.20
2022-12-23T21:11:51.810Z,3.28
2022-12-23T21:14:20.621Z,3.22
2022-12-23T21:16:49.417Z,3.09
2022-12-23T21:19:23.411Z,3.09
2022-12-23T21:21:53.663Z,3.17
2022-12-23T21:24:22.814Z,3.16
2022-12-23T21:26:56.588Z,3.07
2022-12-23T21:29:26.760Z,3.15
2022-12-23T21:31:58.517Z,3.15
2022-12-23T21:34:28.666Z,3.20
2022-12-23T21:36:57.366Z,3.20
2022-12-23T21:39:26.106Z,3.13
2022-12-23T21:41:54.783Z,3.09
2022-12-23T21:44:23.613Z,3.11
2022-12-23T21:46:53.099Z,3.26
2022-12-23T21:49:22.662Z,3.07
2022-12-23T21:51:52.736Z,3.19
2022-12-23T21:54:22.219Z,3.22
2022-12-23T21:56:50.949Z,3.20
2022-12-23T21:59:19.664Z,3.25
2022-12-23T22:01:50.284Z,3.23
2022-12-23T22:04:19.088Z,3.26
2022-12-23T22:06:47.782Z,3.28
2022-12-23T22:09:20.575Z,3.26
2022-12-23T22:11:49.945Z,3.23
2022-12-23T22:14:20.826Z,3.35
2022-12-23T22:16:49.656Z,3.32
2022-12-23T22:19:18.623Z,3.43
2022-12-23T22:21:47.406Z,3.32
2022-12-23T22:24:17.481Z,3.35
2022-12-23T22:26:47.164Z,3.37
2022-12-23T22:29:15.992Z,3.29
2022-12-23T22:31:48.048Z,3.30
2022-12-23T22:34:20.448Z,3.38
2022-12-23T22:36:50.420Z,3.32
2022-12-23T22:39:22.925Z,3.39
2022-12-23T22:41:52.552Z,3.44
2022-12-23T22:44:21.987Z,3.37
2022-12-23T22:46:51.247Z,3.36
2022-12-23T22:49:20.153Z,3.30
2022-12-23T22:51:48.998Z,3.47
2022-12-23T22:54:17.653Z,3.44
2022-12-23T22:56:47.741Z,3.44
2022-12-23T22:59:22.231Z,3.44
2022-12-23T23:01:51.836Z,3.37
2022-12-23T23:04:21.077Z,3.49
2022-12-23T23:06:50.467Z,3.53
2022-12-23T23:09:22.637Z,3.44
2022-12-23T23:11:52.961Z,3.44
2022-12-23T23:14:22.196Z,3.53
2022-12-23T23:16:51.001Z,3.51
2022-12-23T23:19:20.672Z,3.46
2022-12-23T23:21:49.952Z,3.51
2022-12-23T23:24:18.674Z,3.44
2022-12-23T23:26:47.277Z,3.44
2022-12-23T23:29:17.333Z,3.43
2022-12-23T23:31:46.166Z,3.38
2022-12-23T23:34:15.104Z,3.47
2022-12-23T23:36:43.873Z,3.39
2022-12-23T23:39:13.948Z,3.40
2022-12-23T23:41:43.171Z,3.46
2022-12-23T23:44:12.623Z,3.49
2022-12-23T23:46:42.662Z,3.42
2022-12-23T23:49:11.328Z,3.50
2022-12-23T23:51:41.673Z,3.39
2022-12-23T23:54:10.966Z,3.48
2022-12-23T23:56:40.007Z,3.42
2022-12-23T23:59:09.574Z,3.50
